createdAt,value
2022-12-31T00:00:05.708Z,6.6
2022-12-31T00:01:05.817Z,6.7
2022-12-31T00:02:06.832Z,6.7
2022-12-31T00:03:06.436Z,6.7
2022-12-31T00:04:06.704Z,7
2022-12-31T00:05:06.077Z,6.7
2022-12-31T00:06:06.076Z,6.7
2022-12-31T00:07:05.922Z,6.7
2022-12-31T00:08:05.832Z,6.7
2022-12-31T00:09:05.785Z,6.7
2022-12-31T00:10:06.453Z,7
2022-12-31T00:11:06.519Z,7
2022-12-31T00:12:06.429Z,6.7
2022-12-31T00:13:06.643Z,6.7
2022-12-31T00:14:05.881Z,6.7
2022-12-31T00:15:06.190Z,6.8
2022-12-31T00:16:14.354Z,6.8
2022-12-31T00:17:05.688Z,6.8
2022-12-31T00:18:05.668Z,6.8
2022-12-31T00:19:05.970Z,6.8
2022-12-31T00:20:05.923Z,6.8
2022-12-31T00:21:06.073Z,6.8
2022-12-31T00:22:06.048Z,7
2022-12-31T00:23:06.447Z,6.8
2022-12-31T00:24:06.210Z,6.8
2022-12-31T00:25:06.617Z,7
2022-12-31T00:26:05.876Z,7
2022-12-31T00:27:05.397Z,6.8
2022-12-31T00:28:05.787Z,6.8
2022-12-31T00:29:06.471Z,6.8
2022-12-31T00:30:09.057Z,6.8
2022-12-31T00:31:05.837Z,6.8
2022-12-31T00:32:05.869Z,6.8
2022-12-31T00:33:06.525Z,6.8
2022-12-31T00:34:06.242Z,7
2022-12-31T00:35:06.310Z,6.8
2022-12-31T00:36:05.988Z,6.8
2022-12-31T00:37:06.209Z,6.8
2022-12-31T00:38:06.019Z,6.8
2022-12-31T00:39:05.192Z,6.8
2022-12-31T00:40:04.612Z,6.8
2022-12-31T00:41:04.721Z,6.8
2022-12-31T00:42:05.767Z,6.8
2022-12-31T00:43:05.806Z,6.8
2022-12-31T00:44:06.086Z,6.8
2022-12-31T00:45:06.304Z,7
2022-12-31T00:46:06.426Z,7
2022-12-31T00:47:06.482Z,6.8
2022-12-31T00:48:06.617Z,6.8
2022-12-31T00:49:05.517Z,6.8
2022-12-31T00:50:05.831Z,6.8
2022-12-31T00:51:05.959Z,6.8
2022-12-31T00:52:06.394Z,6.8
2022-12-31T00:53:06.395Z,6.8
2022-12-31T00:54:06.642Z,6.8
2022-12-31T00:55:06.652Z,6.8
2022-12-31T00:56:05.787Z,6.8
2022-12-31T00:57:06.547Z,6.8
2022-12-31T00:58:05.820Z,6.8
2022-12-31T00:59:06.471Z,7
2022-12-31T01:00:06.519Z,6.8
2022-12-31T01:01:06.354Z,6.8
2022-12-31T01:02:06.539Z,6.8
2022-12-31T01:03:07.074Z,6.8
2022-12-31T01:04:05.052Z,6.8
2022-12-31T01:05:06.096Z,6.9
2022-12-31T01:06:06.425Z,6.9
2022-12-31T01:07:06.051Z,6.9
2022-12-31T01:08:06.152Z,6.9
2022-12-31T01:09:06.249Z,7
2022-12-31T01:10:06.439Z,7
2022-12-31T01:11:05.972Z,7
2022-12-31T01:12:06.000Z,7
2022-12-31T01:13:05.702Z,7.1
2022-12-31T01:14:05.974Z,7.2
2022-12-31T01:15:06.559Z,7.2
2022-12-31T01:16:06.741Z,7.2
2022-12-31T01:17:05.639Z,7.3
2022-12-31T01:18:05.591Z,7.4
2022-12-31T01:19:05.695Z,7.4
2022-12-31T01:20:06.211Z,7.4
2022-12-31T01:21:06.238Z,7.6
2022-12-31T01:22:06.340Z,7.6
2022-12-31T01:23:06.365Z,7.6
2022-12-31T01:24:05.885Z,7.6
2022-12-31T01:25:06.472Z,7.6
2022-12-31T01:26:06.345Z,7.7
2022-12-31T01:27:06.622Z,7.8
2022-12-31T01:28:06.241Z,7.8
2022-12-31T01:29:06.007Z,7.8
2022-12-31T01:30:05.606Z,7.9
2022-12-31T01:31:06.016Z,7.9
2022-12-31T01:32:06.277Z,7.9
2022-12-31T01:33:06.188Z,8
2022-12-31T01:34:06.303Z,8
2022-12-31T01:35:06.165Z,8
2022-12-31T01:36:06.556Z,8
2022-12-31T01:37:06.044Z,8
2022-12-31T01:38:06.026Z,8
2022-12-31T01:39:06.648Z,8.1
2022-12-31T01:40:06.178Z,8.1
2022-12-31T01:41:06.598Z,8.2
2022-12-31T01:42:06.105Z,10
2022-12-31T01:43:05.631Z,8.2
2022-12-31T01:44:05.527Z,8.2
2022-12-31T01:45:06.602Z,8.2
2022-12-31T01:46:05.697Z,8.2
2022-12-31T01:47:05.623Z,8.3
2022-12-31T01:48:06.082Z,8.3
2022-12-31T01:49:05.812Z,8.4
2022-12-31T01:50:05.815Z,8.4
2022-12-31T01:51:06.206Z,8.4
2022-12-31T01:52:06.649Z,8.5
2022-12-31T01:53:05.927Z,8.5
2022-12-31T01:54:06.607Z,8.6
2022-12-31T01:55:06.039Z,8.6
2022-12-31T01:56:06.474Z,8.6
2022-12-31T01:57:06.529Z,8.7
2022-12-31T01:58:06.223Z,8.7
2022-12-31T01:59:06.626Z,8.8
2022-12-31T02:00:06.080Z,9
2022-12-31T02:01:06.034Z,8.8
2022-12-31T02:02:07.133Z,8.9
2022-12-31T02:03:06.120Z,8.9
2022-12-31T02:04:06.111Z,9
2022-12-31T02:05:06.507Z,9.1
2022-12-31T02:06:05.882Z,9.1
2022-12-31T02:07:06.628Z,9.1
2022-12-31T02:08:05.902Z,9.2
2022-12-31T02:09:06.345Z,9.2
2022-12-31T02:10:04.950Z,9.2
2022-12-31T02:11:06.218Z,9.3
2022-12-31T02:12:06.822Z,9.3
2022-12-31T02:13:06.089Z,9.3
2022-12-31T02:14:06.634Z,9.3
2022-12-31T02:15:05.940Z,9.4
2022-12-31T02:16:06.542Z,9.4
2022-12-31T02:17:05.755Z,9.5
2022-12-31T02:18:05.856Z,9.5
2022-12-31T02:19:06.739Z,11
2022-12-31T02:20:06.027Z,9.6
2022-12-31T02:21:05.703Z,9.6
2022-12-31T02:22:07.077Z,9.6
2022-12-31T02:23:06.013Z,9.6
2022-12-31T02:24:06.532Z,9.6
2022-12-31T02:25:05.842Z,9.7
2022-12-31T02:26:05.937Z,9.7
2022-12-31T02:27:05.855Z,9.7
2022-12-31T02:28:06.221Z,9.8
2022-12-31T02:29:06.273Z,9.8
2022-12-31T02:30:06.304Z,9.8
2022-12-31T02:31:06.649Z,9.8
2022-12-31T02:32:06.560Z,9.8
2022-12-31T02:33:07.143Z,9.8
2022-12-31T02:34:05.921Z,9.8
2022-12-31T02:35:06.109Z,11
2022-12-31T02:36:06.620Z,9.8
2022-12-31T02:37:05.776Z,9.9
2022-12-31T02:38:06.591Z,9.9
2022-12-31T02:39:06.157Z,9.9
2022-12-31T02:40:06.288Z,9.9
2022-12-31T02:41:06.053Z,9.9
2022-12-31T02:42:06.577Z,9.9
2022-12-31T02:43:06.389Z,11
2022-12-31T02:44:06.271Z,10
2022-12-31T02:45:06.355Z,10
2022-12-31T02:46:06.808Z,10
2022-12-31T02:47:06.225Z,10
2022-12-31T02:48:05.917Z,10
2022-12-31T02:49:05.825Z,10
2022-12-31T02:50:05.855Z,10
2022-12-31T02:51:04.511Z,10
2022-12-31T02:52:05.651Z,10
2022-12-31T02:53:05.877Z,10
2022-12-31T02:54:05.874Z,10
2022-12-31T02:55:06.648Z,10
2022-12-31T02:56:06.760Z,10
2022-12-31T02:57:05.913Z,10
2022-12-31T02:58:05.673Z,10
2022-12-31T02:59:06.467Z,10
2022-12-31T03:00:06.606Z,10
2022-12-31T03:01:06.047Z,10
2022-12-31T03:02:05.272Z,10
2022-12-31T03:03:06.366Z,10
2022-12-31T03:04:06.586Z,10
2022-12-31T03:05:06.632Z,10
2022-12-31T03:06:06.053Z,10
2022-12-31T03:07:05.617Z,10
2022-12-31T03:08:06.402Z,10
2022-12-31T03:09:06.554Z,10
2022-12-31T03:10:06.752Z,10
2022-12-31T03:11:06.076Z,10
2022-12-31T03:12:06.353Z,10
2022-12-31T03:13:06.223Z,10
2022-12-31T03:14:06.234Z,10.1
2022-12-31T03:15:05.437Z,10
2022-12-31T03:16:06.863Z,10.1
2022-12-31T03:17:05.727Z,10.1
2022-12-31T03:18:05.866Z,11
2022-12-31T03:19:05.967Z,11
2022-12-31T03:20:05.958Z,10
2022-12-31T03:21:06.671Z,10
2022-12-31T03:22:06.564Z,10.1
2022-12-31T03:23:05.654Z,10.1
2022-12-31T03:24:06.309Z,10.1
2022-12-31T03:25:06.510Z,10.1
2022-12-31T03:26:05.672Z,10.1
2022-12-31T03:27:05.992Z,10.1
2022-12-31T03:28:04.696Z,10.1
2022-12-31T03:29:05.788Z,10.1
2022-12-31T03:30:06.321Z,10.1
2022-12-31T03:31:06.354Z,10.1
2022-12-31T03:32:06.156Z,10.1
2022-12-31T03:33:05.847Z,10.1
2022-12-31T03:34:06.343Z,10.1
2022-12-31T03:35:06.127Z,10.1
2022-12-31T03:36:05.610Z,10.1
2022-12-31T03:37:05.657Z,11
2022-12-31T03:38:06.464Z,10.2
2022-12-31T03:39:06.439Z,10.2
2022-12-31T03:40:06.034Z,10.1
2022-12-31T03:41:05.991Z,10.2
2022-12-31T03:42:04.818Z,10.2
2022-12-31T03:43:06.473Z,10.2
2022-12-31T03:44:05.807Z,10.2
2022-12-31T03:45:06.228Z,10.2
2022-12-31T03:46:06.249Z,10.2
2022-12-31T03:47:05.846Z,10.2
2022-12-31T03:48:06.664Z,10.2
2022-12-31T03:49:06.097Z,10.2
2022-12-31T03:50:06.116Z,10.2
2022-12-31T03:51:06.727Z,10.2
2022-12-31T03:52:06.655Z,10.2
2022-12-31T03:53:05.850Z,10.3
2022-12-31T03:54:05.527Z,10.2
2022-12-31T03:55:06.384Z,10.2
2022-12-31T03:56:06.061Z,10.3
2022-12-31T03:57:06.750Z,10.3
2022-12-31T03:58:05.963Z,10.3
2022-12-31T03:59:05.989Z,10.3
2022-12-31T04:00:05.914Z,10.3
2022-12-31T04:01:06.603Z,10.3
2022-12-31T04:02:06.069Z,10.3
2022-12-31T04:03:06.836Z,10.4
2022-12-31T04:04:06.113Z,10.4
2022-12-31T04:05:05.814Z,11
2022-12-31T04:06:05.874Z,10.4
2022-12-31T04:07:06.056Z,10.4
2022-12-31T04:08:06.208Z,10.4
2022-12-31T04:09:04.761Z,10.4
2022-12-31T04:10:05.766Z,10.4
2022-12-31T04:11:06.657Z,10.4
2022-12-31T04:12:06.299Z,10.4
2022-12-31T04:13:06.348Z,10.4
2022-12-31T04:14:06.495Z,10.4
2022-12-31T04:15:06.745Z,10.4
2022-12-31T04:16:06.698Z,10.4
2022-12-31T04:17:06.543Z,10.4
2022-12-31T04:18:06.379Z,10.4
2022-12-31T04:19:05.913Z,10.4
2022-12-31T04:20:06.201Z,10.4
2022-12-31T04:21:05.662Z,10.4
2022-12-31T04:22:06.293Z,10.4
2022-12-31T04:23:06.106Z,10.4
2022-12-31T04:24:06.273Z,10.4
2022-12-31T04:25:06.357Z,10.4
2022-12-31T04:26:06.682Z,10.4
2022-12-31T04:27:12.037Z,10.4
2022-12-31T04:28:05.771Z,10.4
2022-12-31T04:29:05.620Z,10.3
2022-12-31T04:30:05.558Z,10.3
2022-12-31T04:31:05.627Z,10.2
2022-12-31T04:32:05.920Z,10.3
2022-12-31T04:33:05.547Z,10.2
2022-12-31T04:34:05.874Z,10.2
2022-12-31T04:35:06.094Z,10.2
2022-12-31T04:36:05.957Z,10.2
2022-12-31T04:37:05.752Z,10.2
2022-12-31T04:38:06.082Z,10.2
2022-12-31T04:39:05.958Z,10.2
2022-12-31T04:40:10.881Z,10.2
2022-12-31T04:41:06.076Z,10.2
2022-12-31T04:42:06.437Z,11
2022-12-31T04:43:05.971Z,10.2
2022-12-31T04:44:05.981Z,10.2
2022-12-31T04:45:05.132Z,10.2
2022-12-31T04:46:05.126Z,10.1
2022-12-31T04:47:06.169Z,10
2022-12-31T04:48:06.396Z,10
2022-12-31T04:49:06.200Z,10
2022-12-31T04:50:05.885Z,10
2022-12-31T04:51:06.167Z,10
2022-12-31T04:52:05.846Z,10
2022-12-31T04:53:05.935Z,10
2022-12-31T04:54:06.120Z,10
2022-12-31T04:55:06.183Z,10
2022-12-31T04:56:06.179Z,10
2022-12-31T04:57:06.153Z,10
2022-12-31T04:58:06.047Z,10
2022-12-31T04:59:06.267Z,10
2022-12-31T05:00:06.376Z,10
2022-12-31T05:01:06.548Z,10
2022-12-31T05:02:06.960Z,10
2022-12-31T05:03:05.917Z,10
2022-12-31T05:04:05.474Z,10.1
2022-12-31T05:05:06.273Z,11
2022-12-31T05:06:06.687Z,11
2022-12-31T05:07:05.881Z,10.1
2022-12-31T05:08:05.947Z,10.2
2022-12-31T05:09:06.233Z,10.2
2022-12-31T05:10:05.823Z,10.2
2022-12-31T05:11:05.836Z,10.2
2022-12-31T05:12:05.969Z,10.3
2022-12-31T05:13:04.784Z,10.2
2022-12-31T05:14:05.010Z,10.3
2022-12-31T05:15:06.261Z,10.3
2022-12-31T05:16:06.023Z,10.3
2022-12-31T05:17:06.500Z,10.2
2022-12-31T05:18:06.375Z,10.2
2022-12-31T05:19:06.151Z,10.2
2022-12-31T05:20:06.269Z,10.1
2022-12-31T05:21:06.367Z,10.1
2022-12-31T05:22:06.482Z,10
2022-12-31T05:23:06.577Z,10
2022-12-31T05:24:06.727Z,10
2022-12-31T05:25:06.132Z,9.9
2022-12-31T05:26:06.391Z,9.9
2022-12-31T05:27:06.135Z,9.8
2022-12-31T05:28:05.826Z,9.8
2022-12-31T05:29:06.116Z,9.8
2022-12-31T05:30:06.402Z,9.8
2022-12-31T05:31:05.940Z,9.8
2022-12-31T05:32:05.903Z,9.9
2022-12-31T05:33:05.816Z,9.9
2022-12-31T05:34:05.724Z,9.9
2022-12-31T05:35:06.079Z,9.9
2022-12-31T05:36:06.168Z,10
2022-12-31T05:37:05.888Z,10
2022-12-31T05:38:05.952Z,10
2022-12-31T05:39:06.078Z,10
2022-12-31T05:40:06.459Z,10
2022-12-31T05:41:06.295Z,10.1
2022-12-31T05:42:06.168Z,10.1
2022-12-31T05:43:06.394Z,10.2
2022-12-31T05:44:06.233Z,10.2
2022-12-31T05:45:06.464Z,10.2
2022-12-31T05:46:06.729Z,10.3
2022-12-31T05:47:06.318Z,10.4
2022-12-31T05:48:06.200Z,10.4
2022-12-31T05:49:06.196Z,10.5
2022-12-31T05:50:05.442Z,10.5
2022-12-31T05:51:05.269Z,12
2022-12-31T05:52:05.784Z,10.6
2022-12-31T05:53:06.311Z,10.6
2022-12-31T05:54:05.934Z,10.6
2022-12-31T05:55:06.695Z,10.6
2022-12-31T05:56:06.788Z,10.6
2022-12-31T05:57:06.312Z,10.7
2022-12-31T05:58:05.601Z,10.7
2022-12-31T05:59:05.700Z,10.8
2022-12-31T06:00:05.722Z,10.8
2022-12-31T06:01:05.978Z,10.8
2022-12-31T06:02:05.727Z,10.8
2022-12-31T06:03:07.107Z,10.8
2022-12-31T06:04:06.043Z,10.8
2022-12-31T06:05:05.784Z,10.8
2022-12-31T06:06:06.070Z,10.8
2022-12-31T06:07:05.858Z,10.8
2022-12-31T06:08:05.866Z,10.8
2022-12-31T06:09:06.113Z,10.8
2022-12-31T06:10:06.616Z,10.8
2022-12-31T06:11:04.469Z,10.8
2022-12-31T06:12:06.111Z,10.8
2022-12-31T06:13:06.133Z,10.8
2022-12-31T06:14:06.083Z,10.8
2022-12-31T06:15:04.880Z,10.9
2022-12-31T06:16:06.809Z,10.8
2022-12-31T06:17:06.059Z,10.8
2022-12-31T06:18:04.820Z,10.8
2022-12-31T06:19:04.967Z,10.9
2022-12-31T06:20:15.222Z,10.9
2022-12-31T06:21:06.226Z,12
2022-12-31T06:22:05.742Z,12
2022-12-31T06:23:05.986Z,10.9
2022-12-31T06:24:06.290Z,10.9
2022-12-31T06:25:06.081Z,11
2022-12-31T06:26:06.139Z,12
2022-12-31T06:27:05.238Z,11
2022-12-31T06:28:05.295Z,11
2022-12-31T06:29:06.498Z,11
2022-12-31T06:30:06.518Z,11
2022-12-31T06:31:06.684Z,11
2022-12-31T06:32:06.461Z,11
2022-12-31T06:33:06.243Z,11
2022-12-31T06:34:05.947Z,11
2022-12-31T06:35:05.653Z,11
2022-12-31T06:36:05.724Z,11
2022-12-31T06:37:05.628Z,11
2022-12-31T06:38:05.758Z,11
2022-12-31T06:39:05.754Z,12
2022-12-31T06:40:05.775Z,12
2022-12-31T06:41:05.605Z,11.1
2022-12-31T06:42:06.638Z,11.1
2022-12-31T06:43:06.629Z,11.1
2022-12-31T06:44:05.860Z,11.1
2022-12-31T06:45:05.666Z,11.1
2022-12-31T06:46:06.470Z,11.1
2022-12-31T06:47:06.545Z,11.1
2022-12-31T06:48:06.564Z,11.2
2022-12-31T06:49:06.389Z,11.2
2022-12-31T06:50:05.890Z,13
2022-12-31T06:51:07.789Z,11.2
2022-12-31T06:52:05.310Z,11.2
2022-12-31T06:53:04.652Z,11.2
2022-12-31T06:54:06.015Z,11.2
2022-12-31T06:55:06.560Z,11.2
2022-12-31T06:56:05.835Z,11.2
2022-12-31T06:57:06.015Z,11.2
2022-12-31T06:58:06.303Z,11.2
2022-12-31T06:59:06.151Z,11.2
2022-12-31T07:00:06.037Z,11.3
2022-12-31T07:01:06.064Z,11.3
2022-12-31T07:02:06.466Z,11.3
2022-12-31T07:03:05.867Z,11.4
2022-12-31T07:04:06.142Z,11.4
2022-12-31T07:05:04.592Z,11.4
2022-12-31T07:06:06.613Z,11.5
2022-12-31T07:07:05.990Z,11.5
2022-12-31T07:08:06.057Z,11.5
2022-12-31T07:09:06.256Z,11.5
2022-12-31T07:10:06.379Z,11.5
2022-12-31T07:11:06.312Z,11.6
2022-12-31T07:12:05.757Z,11.6
2022-12-31T07:13:05.511Z,13
2022-12-31T07:14:06.413Z,13
2022-12-31T07:15:06.352Z,11.7
2022-12-31T07:16:06.321Z,11.8
2022-12-31T07:17:05.997Z,11.8
2022-12-31T07:18:06.188Z,13
2022-12-31T07:19:06.269Z,11.8
2022-12-31T07:20:06.294Z,13
2022-12-31T07:21:05.825Z,11.9
2022-12-31T07:22:05.742Z,11.8
2022-12-31T07:23:05.860Z,11.8
2022-12-31T07:24:05.617Z,11.9
2022-12-31T07:25:06.488Z,11.9
2022-12-31T07:26:06.086Z,12
2022-12-31T07:27:05.896Z,12
2022-12-31T07:28:06.101Z,12.1
2022-12-31T07:29:05.858Z,12.1
2022-12-31T07:30:05.833Z,12.1
2022-12-31T07:31:06.199Z,12.1
2022-12-31T07:32:06.442Z,12.1
2022-12-31T07:33:05.993Z,12.1
2022-12-31T07:34:06.238Z,12.1
2022-12-31T07:35:06.221Z,12.1
2022-12-31T07:36:06.160Z,12.1
2022-12-31T07:37:06.134Z,13
2022-12-31T07:38:06.149Z,13
2022-12-31T07:39:06.559Z,12
2022-12-31T07:40:06.416Z,12
2022-12-31T07:41:13.312Z,12
2022-12-31T07:42:06.215Z,12
2022-12-31T07:43:05.712Z,12
2022-12-31T07:44:06.241Z,12
2022-12-31T07:45:06.506Z,12
2022-12-31T07:46:06.057Z,12
2022-12-31T07:47:06.335Z,12
2022-12-31T07:48:07.325Z,12
2022-12-31T07:49:06.552Z,12
2022-12-31T07:50:06.633Z,12
2022-12-31T07:51:05.850Z,12
2022-12-31T07:52:06.475Z,12
2022-12-31T07:53:05.499Z,12
2022-12-31T07:54:14.312Z,12
2022-12-31T07:55:06.093Z,12
2022-12-31T07:56:04.912Z,12
2022-12-31T07:57:05.789Z,13
2022-12-31T07:58:05.878Z,12
2022-12-31T07:59:05.906Z,12.1
2022-12-31T08:00:06.049Z,12.1
2022-12-31T08:01:06.852Z,12.1
2022-12-31T08:02:06.235Z,12.1
2022-12-31T08:03:05.920Z,12.1
2022-12-31T08:04:06.002Z,12.1
2022-12-31T08:05:05.857Z,12.1
2022-12-31T08:06:05.832Z,12.1
2022-12-31T08:07:05.763Z,12.1
2022-12-31T08:08:05.876Z,12.1
2022-12-31T08:09:06.416Z,12.1
2022-12-31T08:10:05.499Z,12.1
2022-12-31T08:11:06.045Z,12.1
2022-12-31T08:12:05.263Z,13
2022-12-31T08:13:06.565Z,12.1
2022-12-31T08:14:06.321Z,12
2022-12-31T08:15:05.418Z,12
2022-12-31T08:16:06.826Z,12.1
2022-12-31T08:17:06.468Z,12
2022-12-31T08:18:05.792Z,12
2022-12-31T08:19:05.932Z,12.1
2022-12-31T08:20:05.909Z,12
2022-12-31T08:21:06.686Z,12.1
2022-12-31T08:22:05.958Z,12
2022-12-31T08:23:05.731Z,12
2022-12-31T08:24:05.749Z,13
2022-12-31T08:25:06.398Z,13
2022-12-31T08:26:05.791Z,12
2022-12-31T08:27:06.012Z,13
2022-12-31T08:28:06.287Z,12.1
2022-12-31T08:29:05.527Z,12.1
2022-12-31T08:30:06.541Z,12.1
2022-12-31T08:31:06.037Z,12.1
2022-12-31T08:32:06.217Z,12.1
2022-12-31T08:33:06.225Z,12.1
2022-12-31T08:34:10.403Z,12.1
2022-12-31T08:35:05.791Z,12.2
2022-12-31T08:36:06.137Z,12.2
2022-12-31T08:37:06.535Z,12.2
2022-12-31T08:38:06.422Z,12.2
2022-12-31T08:39:06.099Z,12.2
2022-12-31T08:40:06.173Z,12.3
2022-12-31T08:41:06.190Z,12.3
2022-12-31T08:42:06.725Z,12.3
2022-12-31T08:43:05.722Z,12.3
2022-12-31T08:44:06.171Z,13
2022-12-31T08:45:06.262Z,12.3
2022-12-31T08:46:06.699Z,12.3
2022-12-31T08:47:05.874Z,12.3
2022-12-31T08:48:05.725Z,12.3
2022-12-31T08:49:05.894Z,12.3
2022-12-31T08:50:06.587Z,12.3
2022-12-31T08:51:06.607Z,12.3
2022-12-31T08:52:06.413Z,12.3
2022-12-31T08:53:06.534Z,12.2
2022-12-31T08:54:06.630Z,12.2
2022-12-31T08:55:06.564Z,12.2
2022-12-31T08:56:05.675Z,12.2
2022-12-31T08:57:05.724Z,12.3
2022-12-31T08:58:05.799Z,12
2022-12-31T08:59:06.004Z,12.3
2022-12-31T09:00:06.219Z,12
2022-12-31T09:01:06.899Z,12
2022-12-31T09:02:05.909Z,12.4
2022-12-31T09:03:06.377Z,13
2022-12-31T09:04:06.630Z,12.8
2022-12-31T09:05:05.283Z,12.8
2022-12-31T09:06:05.452Z,13
2022-12-31T09:07:06.538Z,13.2
2022-12-31T09:08:05.762Z,13.3
2022-12-31T09:09:06.271Z,13.5
2022-12-31T09:10:06.498Z,13.6
2022-12-31T09:11:05.978Z,13.6
2022-12-31T09:12:05.952Z,13.7
2022-12-31T09:13:05.883Z,13.8
2022-12-31T09:14:06.212Z,13.9
2022-12-31T09:15:06.554Z,13.9
2022-12-31T09:16:06.600Z,14
2022-12-31T09:17:06.330Z,14
2022-12-31T09:18:06.416Z,14.1
2022-12-31T09:19:06.291Z,14.1
2022-12-31T09:20:06.319Z,14.1
2022-12-31T09:21:05.310Z,14
2022-12-31T09:22:06.526Z,14
2022-12-31T09:23:06.484Z,14
2022-12-31T09:24:13.372Z,14
2022-12-31T09:25:06.295Z,13.9
2022-12-31T09:26:06.172Z,13.9
2022-12-31T09:27:06.552Z,13.9
2022-12-31T09:28:05.637Z,13.8
2022-12-31T09:29:05.813Z,13.8
2022-12-31T09:30:05.972Z,13.8
2022-12-31T09:31:06.383Z,13.9
2022-12-31T09:32:06.577Z,14
2022-12-31T09:33:06.415Z,14
2022-12-31T09:34:04.690Z,14
2022-12-31T09:35:06.301Z,14
2022-12-31T09:36:06.462Z,14.3
2022-12-31T09:37:06.673Z,14.4
2022-12-31T09:38:14.005Z,14.5
2022-12-31T09:39:06.393Z,14.6
2022-12-31T09:40:06.523Z,14.8
2022-12-31T09:41:06.413Z,14.8
2022-12-31T09:42:06.542Z,14.7
2022-12-31T09:43:06.493Z,14.7
2022-12-31T09:44:06.560Z,14.6
2022-12-31T09:45:06.202Z,14.6
2022-12-31T09:46:06.128Z,14.5
2022-12-31T09:47:06.092Z,14.5
2022-12-31T09:48:06.154Z,14.4
2022-12-31T09:49:06.501Z,14.3
2022-12-31T09:50:06.823Z,14.2
2022-12-31T09:51:06.091Z,14.2
2022-12-31T09:52:06.420Z,14.2
2022-12-31T09:53:06.501Z,14.2
2022-12-31T09:54:06.204Z,14.2
2022-12-31T09:55:05.727Z,14.2
2022-12-31T09:56:06.018Z,14
2022-12-31T09:57:06.118Z,14.1
2022-12-31T09:58:06.266Z,14.1
2022-12-31T09:59:06.239Z,14.1
2022-12-31T10:00:06.362Z,14
2022-12-31T10:01:05.197Z,14
2022-12-31T10:02:06.350Z,14
2022-12-31T10:03:06.507Z,14
2022-12-31T10:04:06.273Z,14
2022-12-31T10:05:04.920Z,14
2022-12-31T10:06:05.170Z,14
2022-12-31T10:07:06.280Z,14
2022-12-31T10:08:06.299Z,14
2022-12-31T10:09:05.745Z,14
2022-12-31T10:10:06.159Z,14
2022-12-31T10:11:05.643Z,14.2
2022-12-31T10:12:05.766Z,14.3
2022-12-31T10:13:06.139Z,14.3
2022-12-31T10:14:06.318Z,14.6
2022-12-31T10:15:06.634Z,14
2022-12-31T10:16:06.513Z,14.8
2022-12-31T10:17:06.667Z,14.8
2022-12-31T10:18:05.100Z,14.9
2022-12-31T10:19:06.056Z,14.8
2022-12-31T10:20:05.805Z,14.9
2022-12-31T10:21:06.667Z,14.8
2022-12-31T10:22:05.861Z,14.8
2022-12-31T10:23:06.074Z,15
2022-12-31T10:24:06.252Z,15
2022-12-31T10:25:06.110Z,14.8
2022-12-31T10:26:06.562Z,14.7
2022-12-31T10:27:05.746Z,14.7
2022-12-31T10:28:05.625Z,14.7
2022-12-31T10:29:05.666Z,14.7
2022-12-31T10:30:06.269Z,14.6
2022-12-31T10:31:05.977Z,14.6
2022-12-31T10:32:05.047Z,14.6
2022-12-31T10:33:06.478Z,15
2022-12-31T10:34:05.975Z,14.6
2022-12-31T10:35:05.919Z,14.6
2022-12-31T10:36:05.894Z,14.6
2022-12-31T10:37:06.181Z,14.5
2022-12-31T10:38:06.255Z,14.5
2022-12-31T10:39:19.035Z,14.5
2022-12-31T10:40:06.300Z,14.5
2022-12-31T10:41:06.126Z,14.4
2022-12-31T10:42:06.174Z,14.4
2022-12-31T10:43:06.190Z,14.4
2022-12-31T10:44:06.806Z,14.3
2022-12-31T10:45:06.225Z,14.3
2022-12-31T10:46:06.670Z,14.3
2022-12-31T10:47:05.882Z,14.2
2022-12-31T10:48:06.138Z,14.3
2022-12-31T10:49:06.061Z,14.3
2022-12-31T10:50:06.405Z,14.2
2022-12-31T10:51:06.595Z,14
2022-12-31T10:52:06.450Z,14.2
2022-12-31T10:53:06.222Z,14.2
2022-12-31T10:54:06.243Z,14.2
2022-12-31T10:55:06.219Z,14.2
2022-12-31T10:56:06.291Z,14.2
2022-12-31T10:57:06.095Z,14.2
2022-12-31T10:58:08.680Z,14.2
2022-12-31T10:59:05.143Z,14.2
2022-12-31T11:00:06.194Z,14.2
2022-12-31T11:01:06.558Z,14.2
2022-12-31T11:02:06.504Z,14
2022-12-31T11:03:05.952Z,14.1
2022-12-31T11:04:06.551Z,14.1
2022-12-31T11:05:06.663Z,14.1
2022-12-31T11:06:06.346Z,14.1
2022-12-31T11:07:06.391Z,14.1
2022-12-31T11:08:06.346Z,14.1
2022-12-31T11:09:06.434Z,14
2022-12-31T11:10:06.053Z,14
2022-12-31T11:11:04.898Z,14
2022-12-31T11:12:06.476Z,14
2022-12-31T11:13:06.547Z,14
2022-12-31T11:14:06.602Z,14
2022-12-31T11:15:06.469Z,14
2022-12-31T11:16:05.946Z,14
2022-12-31T11:17:06.441Z,14
2022-12-31T11:18:06.767Z,14
2022-12-31T11:19:05.719Z,14
2022-12-31T11:20:05.789Z,14
2022-12-31T11:21:06.144Z,14
2022-12-31T11:22:06.129Z,14
2022-12-31T11:23:06.073Z,14
2022-12-31T11:24:06.250Z,14
2022-12-31T11:25:06.115Z,14
2022-12-31T11:26:06.236Z,13.9
2022-12-31T11:27:06.578Z,13.9
2022-12-31T11:28:05.868Z,14
2022-12-31T11:29:06.615Z,13.9
2022-12-31T11:30:05.712Z,13.9
2022-12-31T11:31:06.167Z,13.9
2022-12-31T11:32:06.064Z,13.8
2022-12-31T11:33:05.967Z,13.9
2022-12-31T11:34:06.426Z,13.9
2022-12-31T11:35:06.499Z,13.8
2022-12-31T11:36:06.464Z,13.8
2022-12-31T11:37:06.764Z,13.8
2022-12-31T11:38:05.758Z,13.8
2022-12-31T11:39:05.903Z,13.8
2022-12-31T11:40:06.162Z,13.8
2022-12-31T11:41:06.502Z,14
2022-12-31T11:42:06.146Z,13.7
2022-12-31T11:43:05.907Z,13.8
2022-12-31T11:44:06.145Z,13.8
2022-12-31T11:45:06.078Z,13.8
2022-12-31T11:46:06.518Z,13.8
2022-12-31T11:47:06.520Z,13.7
2022-12-31T11:48:35.092Z,13.7
2022-12-31T11:49:06.247Z,13.7
2022-12-31T11:50:05.465Z,13.7
2022-12-31T11:51:04.778Z,13.7
2022-12-31T11:52:05.852Z,13.7
2022-12-31T11:53:06.103Z,13.8
2022-12-31T11:54:06.259Z,13.8
2022-12-31T11:55:06.481Z,13.8
2022-12-31T11:56:06.519Z,13
2022-12-31T11:57:06.545Z,13
2022-12-31T11:58:06.478Z,13.9
2022-12-31T11:59:19.545Z,13.8
2022-12-31T12:00:06.250Z,13.8
2022-12-31T12:01:05.824Z,13.8
2022-12-31T12:02:05.768Z,13.9
2022-12-31T12:03:05.945Z,13.8
2022-12-31T12:04:06.644Z,13.9
2022-12-31T12:05:15.755Z,13.9
2022-12-31T12:06:06.288Z,13.9
2022-12-31T12:07:06.379Z,13.9
2022-12-31T12:08:06.509Z,13.9
2022-12-31T12:09:06.587Z,14
2022-12-31T12:10:06.558Z,14
2022-12-31T12:11:05.787Z,14
2022-12-31T12:12:05.717Z,14
2022-12-31T12:13:05.815Z,14
2022-12-31T12:14:05.929Z,14
2022-12-31T12:15:06.546Z,14.1
2022-12-31T12:16:04.984Z,14
2022-12-31T12:17:09.299Z,14.1
2022-12-31T12:18:06.587Z,14.1
2022-12-31T12:19:05.647Z,14.1
2022-12-31T12:20:05.690Z,14.2
2022-12-31T12:21:05.733Z,14.2
2022-12-31T12:22:05.548Z,14
2022-12-31T12:23:05.804Z,14.3
2022-12-31T12:24:05.776Z,14.4
2022-12-31T12:25:05.856Z,14.4
2022-12-31T12:26:05.858Z,14.5
2022-12-31T12:27:06.461Z,14.6
2022-12-31T12:28:06.648Z,14.6
2022-12-31T12:29:06.515Z,14.6
2022-12-31T12:30:05.732Z,14.7
2022-12-31T12:31:06.673Z,14.8
2022-12-31T12:32:06.009Z,14.8
2022-12-31T12:33:05.656Z,14.8
2022-12-31T12:34:05.804Z,14.8
2022-12-31T12:35:05.698Z,14.8
2022-12-31T12:36:06.572Z,14.8
2022-12-31T12:37:05.785Z,14.8
2022-12-31T12:38:05.651Z,14.8
2022-12-31T12:39:06.323Z,14.8
2022-12-31T12:40:06.564Z,14.8
2022-12-31T12:41:06.563Z,14.8
2022-12-31T12:42:05.786Z,14.8
2022-12-31T12:43:06.460Z,14.8
2022-12-31T12:44:06.164Z,14.8
2022-12-31T12:45:06.170Z,14.9
2022-12-31T12:46:06.376Z,14.9
2022-12-31T12:47:06.284Z,15
2022-12-31T12:48:06.279Z,14.9
2022-12-31T12:49:06.488Z,14.9
2022-12-31T12:50:06.097Z,14.9
2022-12-31T12:51:05.952Z,15
2022-12-31T12:52:06.100Z,15
2022-12-31T12:53:06.116Z,15
2022-12-31T12:54:06.516Z,15
2022-12-31T12:55:05.566Z,15
2022-12-31T12:56:05.509Z,15.1
2022-12-31T12:57:06.452Z,15.1
2022-12-31T12:58:05.688Z,15.1
2022-12-31T12:59:05.747Z,15.1
2022-12-31T13:00:06.529Z,15.1
2022-12-31T13:01:06.912Z,15.1
2022-12-31T13:02:05.908Z,15.1
2022-12-31T13:03:06.314Z,15.1
2022-12-31T13:04:37.540Z,15.2
2022-12-31T13:05:06.237Z,15.2
2022-12-31T13:06:06.315Z,15.1
2022-12-31T13:07:05.868Z,15.1
2022-12-31T13:08:06.575Z,15.1
2022-12-31T13:09:05.791Z,15
2022-12-31T13:10:06.700Z,15.1
2022-12-31T13:11:05.810Z,15
2022-12-31T13:12:11.738Z,15.1
2022-12-31T13:13:36.216Z,15.1
2022-12-31T13:14:06.195Z,15.1
2022-12-31T13:15:06.305Z,15
2022-12-31T13:16:06.507Z,15
2022-12-31T13:17:06.345Z,15
2022-12-31T13:18:06.770Z,15
2022-12-31T13:19:06.408Z,15
2022-12-31T13:20:04.789Z,15
2022-12-31T13:21:05.281Z,15
2022-12-31T13:22:05.584Z,15
2022-12-31T13:23:05.875Z,14.9
2022-12-31T13:24:06.561Z,14.9
2022-12-31T13:25:06.517Z,14.9
2022-12-31T13:26:05.704Z,15
2022-12-31T13:27:06.220Z,15
2022-12-31T13:28:05.846Z,15
2022-12-31T13:29:06.429Z,15
2022-12-31T13:30:06.125Z,15
2022-12-31T13:31:11.098Z,15
2022-12-31T13:32:06.193Z,15
2022-12-31T13:33:06.173Z,15
2022-12-31T13:34:06.309Z,15
2022-12-31T13:35:06.306Z,15
2022-12-31T13:36:06.275Z,14.9
2022-12-31T13:37:06.610Z,14.9
2022-12-31T13:38:10.011Z,14.9
2022-12-31T13:39:06.420Z,14.9
2022-12-31T13:40:06.538Z,14.9